Time;durP1;ratioP1;P1;durP2;ratioP2;P2;SDS_P1;SDS_P2;PMS_P1;PMS_P2;Temp;Humidity;BMP_temperature;BMP_pressure;BME280_temperature;BME280_humidity;BME280_pressure;Samples;Min_cycle;Max_cycle;Signal;HPM_P1;HPM_P2
2022/04/25 00:01:04;;;;;;;5.53;2.97;;;;;;;8.81;100.00;99726.13;5030124;28;20041;-64
2022/04/25 00:03:30;;;;;;;4.30;3.15;;;;;;;8.74;100.00;99714.28;5036059;28;20865;-63
2022/04/25 00:05:55;;;;;;;8.20;3.40;;;;;;;8.79;100.00;99733.19;5048031;28;20130;-63
2022/04/25 00:08:21;;;;;;;6.18;3.45;;;;;;;8.64;100.00;99705.22;5042319;28;20767;-63
2022/04/25 00:10:46;;;;;;;8.65;3.47;;;;;;;8.75;100.00;99731.69;5028793;28;20810;-63
2022/04/25 00:13:13;;;;;;;5.53;3.60;;;;;;;8.67;100.00;99715.53;5030091;28;20899;-64
2022/04/25 00:15:39;;;;;;;5.22;3.47;;;;;;;8.75;100.00;99725.59;5028487;28;20494;-64
2022/04/25 00:18:05;;;;;;;5.70;3.13;;;;;;;8.77;100.00;99731.59;5029581;28;20025;-64
2022/04/25 00:20:30;;;;;;;5.50;3.20;;;;;;;8.68;100.00;99725.09;5029185;28;20195;-64
2022/04/25 00:22:55;;;;;;;7.22;3.88;;;;;;;8.67;100.00;99726.00;5030332;28;20880;-64
2022/04/25 00:25:21;;;;;;;5.45;3.40;;;;;;;8.48;100.00;99694.69;5033383;28;20140;-64
2022/04/25 00:27:47;;;;;;;5.53;2.83;;;;;;;8.67;100.00;99733.84;5016215;28;20036;-64
2022/04/25 00:30:12;;;;;;;11.75;4.00;;;;;;;8.63;100.00;99732.31;5032791;28;20084;-64
2022/04/25 00:32:38;;;;;;;3.92;3.15;;;;;;;8.60;100.00;99729.88;5033300;28;20763;-64
2022/04/25 00:35:05;;;;;;;9.00;3.90;;;;;;;8.61;100.00;99732.41;5034160;28;20174;-64
2022/04/25 00:37:30;;;;;;;7.50;3.83;;;;;;;8.63;100.00;99740.19;5034760;28;20028;-64
2022/04/25 00:39:55;;;;;;;5.95;3.72;;;;;;;8.59;100.00;99726.41;5034204;28;20036;-64
2022/04/25 00:42:21;;;;;;;6.20;3.70;;;;;;;8.57;100.00;99732.66;5032339;28;20917;-64
2022/04/25 00:44:46;;;;;;;5.70;3.72;;;;;;;8.61;100.00;99739.44;5033282;28;20033;-64
2022/04/25 00:47:12;;;;;;;4.45;3.13;;;;;;;8.39;100.00;99707.44;5033741;28;20032;-63
2022/04/25 00:49:37;;;;;;;5.55;3.80;;;;;;;8.30;100.00;99706.16;5016677;28;20032;-64
2022/04/25 00:52:04;;;;;;;6.68;3.97;;;;;;;8.40;100.00;99730.06;5032849;28;20025;-64
2022/04/25 00:54:31;;;;;;;9.38;4.25;;;;;;;8.36;100.00;99733.75;5035737;28;20067;-63
2022/04/25 00:56:56;;;;;;;5.30;3.83;;;;;;;8.33;100.00;99744.41;5033881;28;20332;-63
2022/04/25 00:59:23;;;;;;;5.68;4.18;;;;;;;8.22;100.00;99731.81;5034864;28;20569;-63
2022/04/25 01:01:51;;;;;;;6.47;4.35;;;;;;;8.12;100.00;99731.44;5033069;28;20062;-63
2022/04/25 01:04:16;;;;;;;6.35;3.97;;;;;;;8.02;100.00;99721.53;5034095;28;20040;-63
2022/04/25 01:06:42;;;;;;;6.30;4.50;;;;;;;8.01;100.00;99741.59;5015597;28;20024;-63
2022/04/25 01:09:07;;;;;;;8.60;4.50;;;;;;;7.93;100.00;99737.69;5032589;28;20029;-63
2022/04/25 01:11:33;;;;;;;8.70;4.50;;;;;;;7.86;100.00;99734.53;5031955;28;20896;-63
2022/04/25 01:14:16;;;;;;;8.02;5.15;;;;;;;7.76;100.00;99733.31;5014426;28;20866;-64
2022/04/25 01:16:42;;;;;;;8.40;4.95;;;;;;;7.76;100.00;99743.75;5031876;28;20032;-63
2022/04/25 01:19:07;;;;;;;6.53;4.63;;;;;;;7.70;100.00;99738.84;5016179;28;20903;-63
2022/04/25 01:21:42;;;;;;;6.90;4.57;;;;;;;7.80;100.00;99750.53;5032859;28;20056;-64
2022/04/25 01:29:38;;;;;;;7.10;5.20;;;;;;;7.86;100.00;99738.91;5033525;28;20042;-63
2022/04/25 01:32:04;;;;;;;6.25;4.80;;;;;;;7.63;100.00;99703.47;5033944;28;20033;-63
2022/04/25 01:34:32;;;;;;;10.25;5.28;;;;;;;7.91;100.00;99763.91;5034085;28;20107;-63
2022/04/25 01:36:57;;;;;;;14.57;5.35;;;;;;;7.86;100.00;99745.00;5032700;28;20354;-64
2022/04/25 01:39:23;;;;;;;8.35;5.72;;;;;;;7.86;100.00;99744.16;5031378;28;20878;-63
2022/04/25 01:41:48;;;;;;;7.75;5.25;;;;;;;7.83;100.00;99739.06;5031632;28;20037;-63
2022/04/25 01:44:13;;;;;;;10.55;5.28;;;;;;;7.89;100.00;99760.53;5031588;28;20819;-63
2022/04/25 01:46:39;;;;;;;5.90;5.00;;;;;;;7.80;100.00;99745.31;5032490;28;20020;-63
2022/04/25 01:49:05;;;;;;;7.13;5.57;;;;;;;7.79;100.00;99754.06;5031141;28;20944;-64
2022/04/25 01:51:32;;;;;;;8.75;5.82;;;;;;;7.72;100.00;99763.13;5033113;28;20029;-64
2022/04/25 01:53:57;;;;;;;8.48;5.97;;;;;;;7.63;100.00;99753.13;5032179;28;20032;-63
2022/04/25 01:56:23;;;;;;;10.48;4.82;;;;;;;7.56;100.00;99759.56;5049554;28;20058;-64
2022/04/25 01:58:48;;;;;;;7.30;5.60;;;;;;;7.34;100.00;99740.59;5051720;28;20036;-64
2022/04/25 02:01:14;;;;;;;9.63;6.40;;;;;;;7.39;100.00;99751.69;5051790;28;20028;-64
2022/04/25 02:03:40;;;;;;;7.05;4.80;;;;;;;7.33;100.00;99757.22;5051913;28;20881;-64
2022/04/25 02:06:05;;;;;;;7.75;5.75;;;;;;;7.26;100.00;99758.41;5051897;28;20135;-64
2022/04/25 02:08:31;;;;;;;8.23;5.68;;;;;;;7.14;100.00;99750.22;5051252;28;20028;-64
2022/04/25 02:13:40;;;;;;;10.60;6.82;;;;;;;7.01;100.00;99749.09;5040644;28;20141;-64
2022/04/25 02:16:06;;;;;;;9.80;6.88;;;;;;;6.94;100.00;99747.69;5031260;28;20890;-64
2022/04/25 02:18:31;;;;;;;12.65;6.90;;;;;;;6.91;100.00;99747.81;5013593;28;20033;-64
2022/04/25 02:20:57;;;;;;;11.73;7.35;;;;;;;6.81;100.00;99746.56;5031349;28;20059;-64
2022/04/25 02:23:23;;;;;;;9.23;6.40;;;;;;;6.71;100.00;99731.38;5030528;28;20032;-64
2022/04/25 02:25:48;;;;;;;10.05;6.22;;;;;;;6.67;100.00;99738.50;5014971;28;20945;-63
2022/04/25 02:28:13;;;;;;;9.25;6.68;;;;;;;6.68;100.00;99745.41;5031525;28;20072;-63
2022/04/25 02:30:39;;;;;;;9.43;6.65;;;;;;;6.59;100.00;99743.22;5032451;28;20882;-64
2022/04/25 02:33:04;;;;;;;15.88;6.90;;;;;;;6.47;100.00;99730.69;5031526;28;20036;-63
2022/04/25 02:35:30;;;;;;;10.55;7.25;;;;;;;6.52;100.00;99744.41;5031954;28;20025;-63
2022/04/25 02:37:55;;;;;;;11.20;7.63;;;;;;;6.42;100.00;99732.69;5033243;28;20857;-63
2022/04/25 02:40:20;;;;;;;13.18;7.68;;;;;;;6.32;100.00;99726.16;5031921;28;20037;-63
2022/04/25 02:42:46;;;;;;;12.05;8.35;;;;;;;6.41;100.00;99750.09;5031279;28;20075;-63
2022/04/25 02:45:12;;;;;;;11.32;7.63;;;;;;;6.36;100.00;99746.81;5030835;28;20861;-63
2022/04/25 02:47:37;;;;;;;10.75;7.40;;;;;;;6.31;100.00;99746.19;5032248;28;20061;-63
2022/04/25 02:50:03;;;;;;;10.43;6.97;;;;;;;6.20;100.00;99744.94;5030970;28;20860;-63
2022/04/25 02:52:28;;;;;;;10.52;7.85;;;;;;;6.19;100.00;99751.91;5032066;28;20028;-63
2022/04/25 02:54:54;;;;;;;10.70;8.18;;;;;;;6.16;100.00;99758.13;5030934;28;20868;-63
2022/04/25 02:57:19;;;;;;;11.70;8.32;;;;;;;6.08;100.00;99754.97;5031415;28;20809;-63
2022/04/25 02:59:45;;;;;;;11.05;7.78;;;;;;;6.09;100.00;99756.69;5031827;28;20774;-63
2022/04/25 03:02:10;;;;;;;15.27;9.13;;;;;;;6.02;100.00;99760.44;5013215;28;20040;-63
2022/04/25 03:04:36;;;;;;;10.68;7.65;;;;;;;5.96;100.00;99763.31;5046861;28;20956;-63
2022/04/25 03:07:01;;;;;;;12.40;7.85;;;;;;;5.81;100.00;99761.34;5031162;28;20020;-63
2022/04/25 03:09:27;;;;;;;10.90;8.35;;;;;;;5.69;100.00;99761.81;5030158;28;20115;-64
2022/04/25 03:11:53;;;;;;;8.93;7.20;;;;;;;5.63;100.00;99769.88;5015344;28;20186;-63
2022/04/25 03:14:18;;;;;;;14.02;8.30;;;;;;;5.43;100.00;99749.00;5030750;28;20989;-63
2022/04/25 03:16:44;;;;;;;15.90;9.57;;;;;;;5.50;100.00;99766.09;5031649;28;20798;-63
2022/04/25 03:19:09;;;;;;;10.88;7.47;;;;;;;5.45;100.00;99770.59;5030229;28;20028;-63
2022/04/25 03:21:34;;;;;;;11.88;8.95;;;;;;;5.39;100.00;99766.50;5029905;28;20837;-63
2022/04/25 03:24:02;;;;;;;12.38;8.85;;;;;;;5.28;100.00;99760.00;5030301;28;20044;-63
2022/04/25 03:26:28;;;;;;;10.70;8.80;;;;;;;5.25;100.00;99771.38;5030356;28;20455;-63
2022/04/25 03:28:53;;;;;;;15.77;8.00;;;;;;;5.15;100.00;99773.50;5030145;28;20059;-63
2022/04/25 03:31:19;;;;;;;11.02;8.85;;;;;;;5.05;100.00;99776.50;5032332;28;20947;-63
2022/04/25 03:33:44;;;;;;;12.07;9.23;;;;;;;4.92;100.00;99776.13;5031903;28;20110;-63
2022/04/25 03:36:10;;;;;;;12.02;8.68;;;;;;;4.76;100.00;99764.59;5029997;28;20086;-63
2022/04/25 03:38:35;;;;;;;11.02;8.90;;;;;;;4.67;100.00;99762.31;5031359;28;20028;-63
2022/04/25 03:41:01;;;;;;;10.07;8.30;;;;;;;4.68;100.00;99787.44;5029915;28;20032;-63
2022/04/25 03:43:27;;;;;;;12.55;8.00;;;;;;;4.59;100.00;99783.44;5031387;28;20036;-63
2022/04/25 03:45:52;;;;;;;10.75;8.77;;;;;;;4.56;100.00;99780.91;5031336;28;20970;-63
2022/04/25 03:48:18;;;;;;;16.25;9.50;;;;;;;4.46;100.00;99770.91;5030249;28;20040;-63
2022/04/25 03:50:43;;;;;;;10.52;9.00;;;;;;;4.45;100.00;99782.19;5031751;28;20027;-63
2022/04/25 03:53:10;;;;;;;11.38;8.77;;;;;;;4.41;100.00;99785.81;5030741;28;20043;-63
2022/04/25 03:58:21;;;;;;;10.85;8.27;;;;;;;4.23;100.00;99763.03;5013839;28;20123;-63
2022/04/25 04:00:47;;;;;;;10.68;8.18;;;;;;;4.18;100.00;99762.34;5028947;28;20286;-63
2022/04/25 04:03:14;;;;;;;11.75;9.20;;;;;;;4.29;100.00;99791.44;5030042;28;20028;-63
2022/04/25 04:05:41;;;;;;;10.18;8.32;;;;;;;4.29;100.00;99783.66;5030500;28;20025;-63
2022/04/25 04:08:07;;;;;;;12.52;10.07;;;;;;;4.25;100.00;99789.84;5030476;28;20661;-63
2022/04/25 04:10:32;;;;;;;12.95;8.85;;;;;;;3.93;100.00;99736.34;5030253;28;20032;-63
2022/04/25 04:12:59;;;;;;;16.00;10.27;;;;;;;4.12;100.00;99768.63;5032256;28;20028;-63
2022/04/25 04:15:25;;;;;;;12.15;9.38;;;;;;;4.26;100.00;99791.56;5032243;28;20024;-64
2022/04/25 04:17:50;;;;;;;15.93;9.18;;;;;;;4.22;100.00;99789.97;5031238;28;20036;-63
2022/04/25 04:20:15;;;;;;;13.60;9.85;;;;;;;4.24;100.00;99795.94;5031440;28;20034;-64
2022/04/25 04:22:41;;;;;;;12.93;10.07;;;;;;;4.15;100.00;99772.88;5029329;28;20032;-63
2022/04/25 04:25:12;;;;;;;16.52;10.45;;;;;;;4.23;100.00;99792.50;5029441;28;20035;-64
2022/04/25 04:27:41;;;;;;;12.25;9.57;;;;;;;4.22;100.00;99796.00;5028559;28;20043;-64
2022/04/25 04:30:17;;;;;;;15.15;9.93;;;;;;;4.21;100.00;99798.66;5029168;28;20836;-64
2022/04/25 04:32:42;;;;;;;16.45;10.50;;;;;;;4.06;100.00;99780.06;5027411;28;20927;-64
2022/04/25 04:35:10;;;;;;;12.77;10.55;;;;;;;4.04;100.00;99784.47;5029593;28;20071;-64
2022/04/25 04:37:36;;;;;;;13.30;10.75;;;;;;;4.01;100.00;99784.59;5010345;28;20142;-63
2022/04/25 04:42:46;;;;;;;12.85;10.38;;;;;;;4.01;100.00;99792.38;5038584;28;20094;-64
2022/04/25 04:45:12;;;;;;;13.35;10.82;;;;;;;4.03;100.00;99800.09;5049537;28;20032;-63
2022/04/25 04:47:39;;;;;;;17.42;11.70;;;;;;;4.08;100.00;99799.06;5049190;28;20065;-63
2022/04/25 04:50:07;;;;;;;17.42;11.38;;;;;;;4.12;100.00;99803.25;5049487;28;20028;-63
2022/04/25 04:52:32;;;;;;;16.40;12.30;;;;;;;4.13;100.00;99797.16;5048917;28;20044;-63
2022/04/25 04:54:58;;;;;;;16.92;11.65;;;;;;;4.14;100.00;99795.41;5048880;28;20113;-63
2022/04/25 04:57:23;;;;;;;17.02;11.98;;;;;;;4.13;100.00;99794.56;5049023;28;20931;-63
2022/04/25 04:59:49;;;;;;;15.93;12.32;;;;;;;4.19;100.00;99801.28;5049332;28;20052;-63
2022/04/25 05:02:16;;;;;;;16.45;12.57;;;;;;;4.22;100.00;99806.41;5050490;28;20030;-63
2022/04/25 05:04:44;;;;;;;23.83;11.77;;;;;;;4.35;100.00;99823.28;5049619;28;20126;-63
2022/04/25 05:07:10;;;;;;;18.02;12.68;;;;;;;4.34;100.00;99805.97;5049214;28;20023;-63
2022/04/25 05:09:35;;;;;;;17.48;13.20;;;;;;;4.45;100.00;99821.22;5051379;28;20731;-63
2022/04/25 05:12:01;;;;;;;19.58;13.13;;;;;;;4.34;100.00;99795.56;5053296;28;20028;-63
2022/04/25 05:14:26;;;;;;;16.75;13.05;;;;;;;4.46;100.00;99804.72;5052799;28;20063;-63
2022/04/25 05:16:51;;;;;;;21.40;13.55;;;;;;;4.66;100.00;99836.09;5052600;28;20028;-63
2022/04/25 05:19:17;;;;;;;19.25;13.98;;;;;;;4.49;100.00;99800.25;5053975;28;20016;-64
2022/04/25 05:21:42;;;;;;;16.10;12.70;;;;;;;4.74;100.00;99826.22;5054344;28;20028;-64
2022/04/25 05:24:09;;;;;;;31.52;15.63;;;;;;;4.79;100.00;99823.47;5052425;28;20903;-64
2022/04/25 05:26:34;;;;;;;17.85;14.88;;;;;;;4.69;100.00;99798.69;5048055;28;20127;-64
2022/04/25 05:28:59;;;;;;;20.02;14.90;;;;;;;4.85;100.00;99833.66;5044333;28;20050;-64
2022/04/25 05:31:25;;;;;;;18.98;14.02;;;;;;;4.83;100.00;99820.72;5043662;28;20923;-64
2022/04/25 05:33:50;;;;;;;19.35;14.15;;;;;;;4.95;100.00;99833.28;5049999;28;20027;-64
2022/04/25 05:36:16;;;;;;;19.92;14.82;;;;;;;4.97;100.00;99836.66;5052611;28;21293;-64
2022/04/25 05:38:41;;;;;;;29.00;14.75;;;;;;;5.00;100.00;99833.94;5050874;28;20090;-64
2022/04/25 05:41:09;;;;;;;21.58;15.68;;;;;;;5.14;100.00;99855.13;5048710;28;20142;-64
2022/04/25 05:43:35;;;;;;;19.83;15.35;;;;;;;5.15;100.00;99849.03;5014908;28;20079;-63
2022/04/25 05:46:01;;;;;;;20.60;14.95;;;;;;;5.12;100.00;99843.94;5031501;28;20894;-64
2022/04/25 05:53:54;;;;;;;28.05;15.18;;;;;;;5.24;100.00;99853.03;5032688;28;20885;-63
2022/04/25 05:56:19;;;;;;;19.48;15.57;;;;;;;5.41;100.00;99874.06;5031090;28;20032;-63
2022/04/25 05:58:45;;;;;;;19.88;15.38;;;;;;;5.43;100.00;99868.81;5016096;28;20793;-63
2022/04/25 06:01:10;;;;;;;23.45;16.90;;;;;;;5.47;100.00;99871.28;5031525;28;20024;-63
2022/04/25 06:03:36;;;;;;;22.20;16.13;;;;;;;5.54;100.00;99877.09;5030943;28;20031;-63
2022/04/25 06:06:01;;;;;;;20.75;14.93;;;;;;;5.60;100.00;99879.47;5030940;28;20039;-63
2022/04/25 06:08:26;;;;;;;27.17;15.18;;;;;;;5.67;100.00;99878.31;5030451;28;20948;-63
2022/04/25 06:10:52;;;;;;;18.10;15.30;;;;;;;5.77;100.00;99878.81;5033005;28;20067;-63
2022/04/25 06:13:18;;;;;;;20.67;15.80;;;;;;;5.87;100.00;99886.25;5032180;28;20024;-63
2022/04/25 06:15:43;;;;;;;16.63;14.85;;;;;;;5.98;100.00;99884.03;5031873;28;20044;-63
2022/04/25 06:18:09;;;;;;;23.10;15.75;;;;;;;5.96;100.00;99861.56;5032636;28;20077;-65
2022/04/25 06:20:35;;;;;;;25.38;16.48;;;;;;;6.12;100.00;99886.94;5032139;28;20206;-63
2022/04/25 06:23:03;;;;;;;20.35;16.95;;;;;;;6.20;100.00;99894.47;5031268;28;20031;-63
2022/04/25 06:25:30;;;;;;;28.02;19.15;;;;;;;6.20;100.00;99885.78;5032702;28;20194;-64
2022/04/25 06:28:00;;;;;;;20.35;16.23;;;;;;;6.04;100.00;99870.78;5030898;28;20136;-64
2022/04/25 06:30:29;;;;;;;31.63;19.15;;;;;;;6.18;100.00;99879.81;5031682;28;20024;-63
2022/04/25 06:32:55;;;;;;;25.70;18.77;;;;;;;6.28;100.00;99886.34;5041761;28;20434;-63
2022/04/25 06:35:20;;;;;;;23.83;18.67;;;;;;;6.25;100.00;99883.88;5048947;28;20166;-63
2022/04/25 06:37:46;;;;;;;20.02;16.90;;;;;;;6.37;100.00;99891.16;5040219;28;20035;-63
2022/04/25 06:40:12;;;;;;;25.38;17.83;;;;;;;6.54;100.00;99904.38;5034233;28;20095;-63
2022/04/25 06:42:38;;;;;;;28.10;17.65;;;;;;;6.68;100.00;99902.88;5037577;28;20032;-63
2022/04/25 06:45:04;;;;;;;24.65;18.08;;;;;;;6.90;100.00;99905.41;5029527;28;20042;-63
2022/04/25 06:47:29;;;;;;;30.52;18.52;;;;;;;7.15;100.00;99902.59;5029801;28;20020;-62
2022/04/25 06:49:55;;;;;;;26.13;17.02;;;;;;;7.40;100.00;99902.34;5030049;28;20114;-63
2022/04/25 06:52:23;;;;;;;23.15;16.48;;;;;;;7.64;100.00;99901.22;5031002;28;20024;-62
2022/04/25 06:54:49;;;;;;;26.27;17.23;;;;;;;7.88;100.00;99901.84;5029467;28;20024;-63
2022/04/25 06:57:15;;;;;;;25.60;18.13;;;;;;;7.82;100.00;99900.38;5029552;28;20924;-63
2022/04/25 06:59:40;;;;;;;31.17;18.27;;;;;;;7.93;100.00;99907.72;5029684;28;20866;-62
2022/04/25 07:02:05;;;;;;;19.67;16.02;;;;;;;7.95;100.00;99896.25;5029949;28;20962;-62
2022/04/25 07:04:31;;;;;;;20.27;16.20;;;;;;;8.00;100.00;99909.97;5029732;28;20275;-63
2022/04/25 07:06:56;;;;;;;23.08;15.77;;;;;;;8.13;100.00;99918.94;5030181;28;20090;-62
2022/04/25 07:09:22;;;;;;;25.45;16.95;;;;;;;8.39;100.00;99915.06;5029951;28;20063;-63
2022/04/25 07:11:47;;;;;;;21.80;16.42;;;;;;;8.51;100.00;99911.88;5030902;28;20037;-63
2022/04/25 07:14:14;;;;;;;18.95;15.98;;;;;;;8.66;100.00;99931.19;5030917;28;20063;-63
2022/04/25 07:16:41;;;;;;;19.27;14.63;;;;;;;8.77;100.00;99923.66;5032841;28;20032;-62
2022/04/25 07:19:07;;;;;;;21.75;15.38;;;;;;;8.73;100.00;99922.09;5036856;28;20863;-62
2022/04/25 07:29:48;;;;;;;38.87;18.00;;;;;;;8.47;100.00;99920.78;5023934;28;20293;-65
2022/04/25 07:32:14;;;;;;;27.70;16.73;;;;;;;8.58;100.00;99938.59;5041713;28;20028;-63
2022/04/25 07:34:41;;;;;;;22.17;16.45;;;;;;;8.77;100.00;99946.38;5050124;28;20110;-62
2022/04/25 07:37:07;;;;;;;23.40;16.90;;;;;;;8.69;100.00;99902.22;5049492;28;20832;-63
2022/04/25 07:39:32;;;;;;;22.58;16.05;;;;;;;8.97;100.00;99949.69;5049394;28;20076;-62
2022/04/25 07:41:58;;;;;;;18.42;15.45;;;;;;;8.90;100.00;99945.69;5049826;28;20062;-63
2022/04/25 07:44:24;;;;;;;20.23;15.32;;;;;;;8.58;100.00;99925.50;5068948;28;20419;-63
2022/04/25 07:46:50;;;;;;;23.70;16.02;;;;;;;8.79;100.00;99950.59;5050705;28;20024;-62
2022/04/25 07:49:16;;;;;;;24.58;15.65;;;;;;;8.84;100.00;99939.91;5050606;28;20024;-63
2022/04/25 07:51:41;;;;;;;22.38;17.10;;;;;;;8.89;100.00;99945.78;5050404;28;20082;-63
2022/04/25 07:54:08;;;;;;;20.50;16.05;;;;;;;8.94;100.00;99962.94;5048933;28;20813;-62
2022/04/25 07:56:34;;;;;;;23.70;17.17;;;;;;;8.85;100.00;99944.22;5048945;28;20030;-62
2022/04/25 07:59:02;;;;;;;26.40;17.88;;;;;;;9.00;100.00;99957.38;5048670;28;20032;-63
2022/04/25 08:01:31;;;;;;;20.48;15.85;;;;;;;9.07;100.00;99958.78;5048948;28;20094;-62
2022/04/25 08:03:56;;;;;;;21.10;16.42;;;;;;;9.15;100.00;99945.28;5049180;28;20096;-62
2022/04/25 08:06:22;;;;;;;22.95;16.98;;;;;;;9.18;100.00;99948.59;5050622;28;20032;-63
2022/04/25 08:08:52;;;;;;;18.83;14.48;;;;;;;9.29;100.00;99953.28;5048969;28;20929;-62
2022/04/25 08:11:19;;;;;;;22.42;17.23;;;;;;;9.31;100.00;99966.31;5030427;28;20028;-63
2022/04/25 08:19:15;;;;;;;20.42;13.95;;;;;;;9.22;100.00;99968.50;5048212;28;20047;-62
2022/04/25 08:21:41;;;;;;;23.40;14.90;;;;;;;9.42;100.00;99977.09;5049156;28;20233;-62
2022/04/25 08:24:06;;;;;;;20.58;13.60;;;;;;;9.39;100.00;99937.91;5049795;28;20945;-62
2022/04/25 08:26:32;;;;;;;16.40;14.20;;;;;;;9.88;100.00;99976.34;5049444;28;20101;-62
2022/04/25 08:28:59;;;;;;;16.92;12.40;;;;;;;9.98;100.00;99974.03;5048467;28;20816;-62
2022/04/25 08:31:25;;;;;;;15.65;13.15;;;;;;;10.14;100.00;99962.66;5048697;28;20039;-63
2022/04/25 08:33:51;;;;;;;23.58;13.30;;;;;;;10.21;100.00;99982.38;5048965;28;20064;-63
2022/04/25 08:36:18;;;;;;;16.38;12.27;;;;;;;10.34;100.00;99984.34;5066666;28;20040;-62
2022/04/25 08:38:44;;;;;;;14.70;12.13;;;;;;;10.50;100.00;99974.66;5091714;28;20024;-62
2022/04/25 08:41:10;;;;;;;15.43;11.57;;;;;;;10.50;100.00;99977.31;5068140;28;20031;-63
2022/04/25 08:43:38;;;;;;;14.35;12.45;;;;;;;10.28;100.00;99951.38;5016788;28;20924;-63
2022/04/25 08:46:07;;;;;;;15.20;11.60;;;;;;;10.31;100.00;99979.28;5069629;28;20020;-63
2022/04/25 08:48:33;;;;;;;20.50;12.63;;;;;;;10.38;100.00;99980.59;5039977;28;20068;-63
2022/04/25 08:50:58;;;;;;;17.98;12.95;;;;;;;10.02;100.00;99939.69;5046829;28;20038;-62
2022/04/25 08:53:25;;;;;;;18.73;13.05;;;;;;;10.32;100.00;99994.94;5052490;28;20034;-62
2022/04/25 08:55:53;;;;;;;15.02;13.35;;;;;;;10.37;100.00;99989.44;5053475;28;20131;-62
2022/04/25 08:58:19;;;;;;;16.65;13.00;;;;;;;9.74;100.00;99927.22;5035698;28;20058;-62
2022/04/25 09:00:44;;;;;;;15.43;13.73;;;;;;;9.86;100.00;99974.72;5025592;28;20151;-63
2022/04/25 09:03:10;;;;;;;17.35;15.50;;;;;;;10.00;100.00;100001.94;5046821;28;20053;-62
2022/04/25 09:05:37;;;;;;;18.92;14.02;;;;;;;10.11;100.00;99996.06;5031903;28;20135;-62
2022/04/25 09:08:02;;;;;;;17.83;14.30;;;;;;;10.30;100.00;100006.47;5016451;28;20131;-62
2022/04/25 09:10:30;;;;;;;20.65;14.48;;;;;;;10.48;100.00;100015.91;5032360;28;20036;-63
2022/04/25 09:12:56;;;;;;;21.05;15.70;;;;;;;10.48;100.00;100010.66;5033208;28;20024;-63
2022/04/25 09:15:22;;;;;;;19.73;15.65;;;;;;;10.41;100.00;100001.47;5032290;28;20032;-62
2022/04/25 09:17:48;;;;;;;18.13;16.27;;;;;;;10.45;100.00;100008.22;5031322;28;20034;-62
2022/04/25 09:20:14;;;;;;;31.35;20.45;;;;;;;10.43;100.00;100012.72;5019972;28;20021;-63
2022/04/25 09:22:40;;;;;;;21.63;19.42;;;;;;;10.42;100.00;100024.16;5042785;28;20031;-63
2022/04/25 09:25:09;;;;;;;19.65;17.58;;;;;;;10.47;100.00;100024.75;5048123;28;20028;-62
2022/04/25 09:27:35;;;;;;;22.73;20.27;;;;;;;10.49;100.00;100021.09;5050252;28;20043;-63
2022/04/25 09:30:18;;;;;;;30.23;20.05;;;;;;;10.36;100.00;100019.25;5029579;28;20059;-63
2022/04/25 09:32:44;;;;;;;24.20;21.48;;;;;;;10.31;100.00;100016.84;5043852;28;20036;-62
2022/04/25 09:35:39;;;;;;;30.67;21.58;;;;;;;10.32;100.00;100025.59;5051497;28;20028;-63
2022/04/25 09:38:05;;;;;;;;;;;;;;;10.40;100.00;100029.50;5052501;28;20435;-63
2022/04/25 09:40:35;;;;;;;25.23;22.60;;;;;;;10.53;100.00;100024.41;5053364;28;19961;-62
2022/04/25 09:43:06;;;;;;;31.30;23.95;;;;;;;10.63;100.00;100028.22;5032830;28;21000;-62
2022/04/25 09:45:33;;;;;;;27.95;23.00;;;;;;;10.76;100.00;100026.59;5053767;28;20143;-62
2022/04/25 09:47:59;;;;;;;29.10;25.98;;;;;;;10.79;100.00;100008.00;5088632;28;20028;-62
2022/04/25 09:50:27;;;;;;;27.98;24.95;;;;;;;10.77;100.00;99997.59;5076496;28;20039;-63
2022/04/25 09:52:58;;;;;;;32.53;26.15;;;;;;;11.00;100.00;100017.28;5095031;28;20035;-62
2022/04/25 09:55:25;;;;;;;30.83;24.55;;;;;;;11.22;100.00;100025.59;5081001;28;20386;-62
2022/04/25 09:57:51;;;;;;;27.80;24.80;;;;;;;11.22;100.00;99996.69;5057456;28;20135;-62
2022/04/25 10:00:38;;;;;;;31.52;25.05;;;;;;;11.62;100.00;100029.38;5050434;28;20031;-62
2022/04/25 10:03:04;;;;;;;32.05;27.67;;;;;;;11.54;100.00;100009.69;5050281;28;20880;-62
2022/04/25 10:05:41;;;;;;;37.88;27.90;;;;;;;11.76;100.00;100039.91;5051522;28;20052;-62
2022/04/25 10:08:11;;;;;;;29.95;26.45;;;;;;;11.83;100.00;100031.66;5033453;28;20031;-62
2022/04/25 10:10:46;;;;;;;31.42;27.35;;;;;;;11.85;100.00;100037.69;5051336;28;20062;-62
2022/04/25 10:13:12;;;;;;;30.10;26.40;;;;;;;11.49;100.00;99990.72;5053037;28;20036;-62
2022/04/25 10:15:38;;;;;;;33.35;26.92;;;;;;;11.62;100.00;100033.78;5051553;28;20086;-63
2022/04/25 10:18:05;;;;;;;34.45;25.95;;;;;;;11.39;100.00;100031.69;5051349;28;20423;-62
2022/04/25 10:20:34;;;;;;;32.10;27.73;;;;;;;11.23;100.00;100050.97;5033157;28;20028;-62
2022/04/25 10:23:01;;;;;;;32.25;28.75;;;;;;;11.07;100.00;100037.03;5031969;28;20044;-63
2022/04/25 10:25:27;;;;;;;35.72;29.70;;;;;;;11.05;100.00;100046.78;5032398;28;20032;-63
2022/04/25 10:27:52;;;;;;;35.15;29.33;;;;;;;10.81;100.00;100010.56;5050237;28;20027;-63
2022/04/25 10:30:20;;;;;;;42.15;29.75;;;;;;;11.07;100.00;100047.56;5032381;28;20035;-62
2022/04/25 10:32:46;;;;;;;32.25;28.83;;;;;;;11.50;100.00;100040.63;5032887;28;20990;-62
2022/04/25 10:35:16;;;;;;;29.23;26.15;;;;;;;12.14;100.00;100045.47;5050068;28;20035;-62
2022/04/25 10:37:44;;;;;;;30.67;27.40;;;;;;;12.36;100.00;100052.88;5052138;28;20032;-64
2022/04/25 10:40:14;;;;;;;33.45;26.35;;;;;;;12.07;100.00;100061.72;5050730;28;20893;-64
2022/04/25 10:46:00;;;;;;;32.65;25.42;;;;;;;12.03;100.00;100060.25;5051389;28;20195;-63
2022/04/25 10:48:26;;;;;;;29.75;26.58;;;;;;;12.63;100.00;100056.41;5052383;28;20131;-64
2022/04/25 10:51:12;;;;;;;33.10;25.35;;;;;;;13.46;100.00;100030.69;5051804;28;20920;-64
2022/04/25 10:54:00;;;;;;;28.63;23.05;;;;;;;13.74;100.00;100004.09;5051550;28;20028;-63
2022/04/25 10:56:27;;;;;;;24.38;21.75;;;;;;;14.15;100.00;100039.03;5051277;28;20976;-62
2022/04/25 10:59:25;;;;;;;26.13;20.60;;;;;;;14.57;100.00;100053.66;5051192;28;20121;-61
2022/04/25 11:01:51;;;;;;;24.20;20.63;;;;;;;14.70;100.00;100021.91;5052026;28;20136;-61
2022/04/25 11:04:19;;;;;;;21.80;19.63;;;;;;;15.05;100.00;100043.09;5051818;28;20035;-62
2022/04/25 11:06:44;;;;;;;31.38;19.98;;;;;;;14.41;100.00;100025.78;5050725;28;20108;-62
2022/04/25 11:09:10;;;;;;;25.10;20.85;;;;;;;13.97;100.00;100042.13;5051062;28;20028;-62
2022/04/25 11:11:53;;;;;;;22.52;19.05;;;;;;;13.51;100.00;100037.38;5050461;28;20869;-62
2022/04/25 11:14:19;;;;;;;22.48;19.73;;;;;;;13.32;100.00;100050.97;5050784;28;20031;-62
2022/04/25 11:17:13;;;;;;;25.60;18.13;;;;;;;12.97;100.00;100057.72;5051481;28;20332;-62
2022/04/25 11:19:51;;;;;;;33.35;20.85;;;;;;;12.68;100.00;100064.00;5051015;28;20035;-62
2022/04/25 11:22:31;;;;;;;24.63;20.77;;;;;;;12.76;100.00;100067.00;5050117;28;20030;-62
2022/04/25 11:25:13;;;;;;;23.88;18.27;;;;;;;12.86;100.00;100073.38;5033288;28;20194;-62
2022/04/25 11:28:15;;;;;;;24.52;18.42;;;;;;;12.92;100.00;100062.41;5048075;28;20036;-62
2022/04/25 11:30:41;;;;;;;26.40;20.05;;;;;;;12.93;100.00;100058.84;4968725;28;20029;-62
2022/04/25 11:33:08;;;;;;;19.88;17.83;;;;;;;13.00;100.00;100060.13;5032759;28;20039;-62
2022/04/25 11:35:34;;;;;;;22.58;20.23;;;;;;;12.73;100.00;100052.22;5049508;28;20027;-63
2022/04/25 11:38:00;;;;;;;23.15;19.98;;;;;;;12.57;100.00;100058.59;5050481;28;20905;-62
2022/04/25 11:40:26;;;;;;;24.17;20.00;;;;;;;12.20;100.00;100031.91;5050646;28;20043;-63
2022/04/25 11:42:52;;;;;;;24.27;20.83;;;;;;;12.25;100.00;100066.72;5051072;28;20032;-62
2022/04/25 11:45:19;;;;;;;21.50;19.13;;;;;;;12.10;100.00;100065.03;5052105;28;20218;-62
2022/04/25 11:47:44;;;;;;;30.77;21.27;;;;;;;11.73;100.00;100005.88;5034025;28;20071;-63
2022/04/25 11:50:13;;;;;;;23.17;20.73;;;;;;;12.17;100.00;100076.88;5049847;28;20028;-63
2022/04/25 11:53:06;;;;;;;25.13;22.23;;;;;;;12.24;100.00;100070.28;5049020;28;20089;-63